createdAt,value
2022-10-09T00:01:19.046Z,2.7
2022-10-09T00:06:03.418Z,2.6
2022-10-09T00:11:35.337Z,3.1
2022-10-09T00:15:14.769Z,2.9
2022-10-09T00:20:00.054Z,3
2022-10-09T00:21:04.385Z,2.9
2022-10-09T00:22:18.921Z,3.2
2022-10-09T00:25:43.283Z,2.6
2022-10-09T00:31:02.876Z,2.8
2022-10-09T00:36:17.092Z,3.2
2022-10-09T00:40:48.913Z,3.2
2022-10-09T00:45:33.217Z,2.8
2022-10-09T00:51:05.425Z,3.1
2022-10-09T00:54:32.921Z,2.6
2022-10-09T00:59:27.165Z,2.6
2022-10-09T01:00:31.608Z,2.5
2022-10-09T01:22:29.117Z,2.2
2022-10-09T01:23:38.464Z,2.4
2022-10-09T01:28:33.066Z,2
2022-10-09T01:33:17.117Z,2
2022-10-09T01:38:49.509Z,2.2
2022-10-09T01:42:23.954Z,2
2022-10-09T01:47:28.356Z,1.9
2022-10-09T01:48:32.521Z,2.1
2022-10-09T01:59:57.271Z,1.9
2022-10-09T02:01:06.803Z,2.3
2022-10-09T02:05:51.250Z,2.3
2022-10-09T02:11:06.122Z,2.3
2022-10-09T02:15:36.144Z,2.3
2022-10-09T02:21:20.246Z,2.3
2022-10-09T02:29:32.502Z,2.2
2022-10-09T02:34:57.203Z,2.3
2022-10-09T02:36:01.298Z,2.1
2022-10-09T02:39:26.879Z,2.6
2022-10-09T02:51:48.754Z,2.5
2022-10-09T02:52:58.334Z,2.4
2022-10-09T02:57:42.959Z,2.4
2022-10-09T03:02:57.601Z,2.4
2022-10-09T03:08:12.132Z,2.5
2022-10-09T03:13:44.438Z,2.3
2022-10-09T03:22:42.081Z,2.2
2022-10-09T03:23:46.412Z,2.4
2022-10-09T03:32:26.578Z,2.5
2022-10-09T03:33:30.606Z,2.7
2022-10-09T03:41:45.257Z,2.4
2022-10-09T03:42:49.772Z,2.4
2022-10-09T03:46:15.069Z,2.8
2022-10-09T03:54:07.512Z,2.5
2022-10-09T03:55:16.934Z,2.5
2022-10-09T04:00:01.496Z,2.7
2022-10-09T04:04:31.873Z,2.7
2022-10-09T04:10:03.786Z,2.4
2022-10-09T04:27:17.934Z,2.3
2022-10-09T04:28:22.341Z,2.4
2022-10-09T04:36:32.166Z,3.4
2022-10-09T04:41:21.780Z,4
2022-10-09T04:42:26.186Z,4
2022-10-09T04:46:05.394Z,4
2022-10-09T04:50:50.198Z,3.9
2022-10-09T04:51:54.378Z,4
2022-10-09T05:07:42.460Z,4
2022-10-09T05:08:51.742Z,4.3
2022-10-09T05:13:36.463Z,3.9
2022-10-09T05:18:06.418Z,3.9
2022-10-09T05:22:51.690Z,4.3
2022-10-09T05:28:06.050Z,4.2
2022-10-09T05:32:26.071Z,4.3
2022-10-09T05:33:30.222Z,4.2
2022-10-09T05:36:44.733Z,4.2
2022-10-09T05:39:39.408Z,4.1
2022-10-09T05:44:38.521Z,4.1
2022-10-09T05:45:48.204Z,4.2
2022-10-09T05:46:52.345Z,3.9
2022-10-09T05:50:07.131Z,4.1
2022-10-09T05:58:18.057Z,3.7
2022-10-09T05:59:22.237Z,4.2
2022-10-09T06:02:48.301Z,4.3
2022-10-09T06:08:02.762Z,4.2
2022-10-09T06:09:06.807Z,4
2022-10-09T06:10:14.011Z,3.6
2022-10-09T06:13:11.997Z,4.2
2022-10-09T06:14:16.029Z,4.3
2022-10-09T06:18:44.397Z,4.2
2022-10-09T06:19:48.955Z,4.6
2022-10-09T06:26:02.325Z,3.6
2022-10-09T06:34:15.102Z,3.5
2022-10-09T06:35:19.393Z,3.8
2022-10-09T06:38:44.901Z,3.4
2022-10-09T06:43:59.753Z,2.9
2022-10-09T06:45:04.153Z,3.1
2022-10-09T06:54:56.834Z,3.1
2022-10-09T06:59:41.515Z,3.6
2022-10-09T07:04:26.249Z,3.6
2022-10-09T07:08:56.741Z,3.6
2022-10-09T07:14:28.625Z,3
2022-10-09T07:22:41.921Z,3.1
2022-10-09T07:23:46.025Z,2.8
2022-10-09T07:34:13.963Z,2.7
2022-10-09T07:44:13.048Z,7.9
2022-10-09T07:45:17.244Z,3.4
2022-10-09T07:49:44.177Z,18.5
2022-10-09T07:50:48.204Z,5.9
2022-10-09T07:51:52.230Z,3.3
2022-10-09T07:52:58.238Z,2.5
2022-10-09T07:54:04.240Z,2.6
2022-10-09T07:55:08.525Z,2.5
2022-10-09T07:56:12.729Z,2.5
2022-10-09T07:57:22.561Z,3.3
2022-10-09T07:58:26.576Z,2.5
2022-10-09T07:59:30.581Z,2.4
2022-10-09T08:00:34.725Z,2.3
2022-10-09T08:01:38.919Z,2.5
2022-10-09T08:02:43.104Z,2.4
2022-10-09T08:03:47.145Z,2.1
2022-10-09T08:04:51.161Z,2.4
2022-10-09T08:05:55.224Z,2.7
2022-10-09T08:06:59.975Z,2.4
2022-10-09T08:08:04.027Z,2.3
2022-10-09T08:09:08.136Z,2.6
2022-10-09T08:10:12.172Z,2.5
2022-10-09T08:11:16.266Z,2.7
2022-10-09T08:12:20.974Z,2.8
2022-10-09T08:13:26.280Z,2.4
2022-10-09T08:14:30.392Z,2.6
2022-10-09T08:15:35.246Z,2.5
2022-10-09T08:16:42.024Z,2.4
2022-10-09T08:17:46.048Z,2.5
2022-10-09T08:18:50.051Z,2.7
2022-10-09T08:19:54.175Z,2.7
2022-10-09T08:20:58.335Z,2.7
2022-10-09T08:22:03.520Z,2.8
2022-10-09T08:23:06.459Z,2.6
2022-10-09T08:24:10.669Z,2.7
2022-10-09T08:25:14.694Z,2.8
2022-10-09T08:26:18.765Z,2.7
2022-10-09T08:27:23.029Z,2.8
2022-10-09T08:28:27.116Z,2.8
2022-10-09T08:29:31.160Z,3
2022-10-09T08:30:36.303Z,3.1
2022-10-09T08:31:40.536Z,2.6
2022-10-09T08:32:44.616Z,2.4
2022-10-09T08:33:48.620Z,2.7
2022-10-09T08:34:55.685Z,3.1
2022-10-09T08:35:59.696Z,2.6
2022-10-09T08:37:06.401Z,3.2
2022-10-09T08:38:21.375Z,3.1
2022-10-09T08:39:14.668Z,2.8
2022-10-09T08:40:18.717Z,2.9
2022-10-09T08:41:27.828Z,2.9
2022-10-09T08:42:39.872Z,2.8
2022-10-09T08:43:44.184Z,2.7
2022-10-09T08:44:48.432Z,2.7
2022-10-09T08:45:52.544Z,2.5
2022-10-09T08:46:56.620Z,2.6
2022-10-09T08:48:06.564Z,2.5
2022-10-09T08:49:10.837Z,2.3
2022-10-09T08:50:15.828Z,2.7
2022-10-09T08:51:21.344Z,2.7
2022-10-09T08:52:29.328Z,2.9
2022-10-09T08:53:38.520Z,2.5
2022-10-09T08:54:47.724Z,2.8
2022-10-09T08:55:52.051Z,2.5
2022-10-09T08:56:56.151Z,2.4
2022-10-09T08:58:00.233Z,2.3
2022-10-09T08:59:04.472Z,2.5
2022-10-09T09:00:09.104Z,2.5
2022-10-09T09:01:14.106Z,2.4
2022-10-09T09:02:23.353Z,2.4
2022-10-09T09:03:37.653Z,2.5
2022-10-09T09:04:49.051Z,2.4
2022-10-09T09:06:01.284Z,2
2022-10-09T09:07:08.096Z,2
2022-10-09T09:08:20.160Z,2
2022-10-09T09:09:29.380Z,2.3
2022-10-09T09:10:43.792Z,2.5
2022-10-09T09:11:52.989Z,2.6
2022-10-09T09:13:05.197Z,2.1
2022-10-09T09:14:17.396Z,3
2022-10-09T09:20:04.813Z,2.6
2022-10-09T09:23:09.659Z,2.4
2022-10-09T09:25:48.400Z,2.2
2022-10-09T09:28:47.731Z,2.4
2022-10-09T09:33:20.044Z,2.2
2022-10-09T09:34:34.268Z,2
2022-10-09T09:35:38.618Z,1.9
2022-10-09T09:36:51.148Z,2.2
2022-10-09T09:37:55.712Z,2.3
2022-10-09T09:40:35.893Z,2.4
2022-10-09T09:41:31.736Z,1.7
2022-10-09T09:42:36.308Z,1.7
2022-10-09T09:43:44.451Z,1.7
2022-10-09T09:44:48.725Z,1.9
2022-10-09T09:45:58.143Z,1.9
2022-10-09T09:47:03.297Z,1.9
2022-10-09T09:48:14.973Z,1.9
2022-10-09T09:49:19.617Z,2.5
2022-10-09T09:50:45.942Z,2
2022-10-09T09:51:29.700Z,1.9
2022-10-09T09:52:33.148Z,1.7
2022-10-09T09:53:37.544Z,2.3
2022-10-09T09:54:45.388Z,2.1
2022-10-09T09:55:49.864Z,1.8
2022-10-09T09:57:11.502Z,1.6
2022-10-09T09:57:58.973Z,1.8
2022-10-09T09:59:03.200Z,2.1
2022-10-09T10:00:07.759Z,2.1
2022-10-09T10:01:15.047Z,2
2022-10-09T10:02:25.622Z,2
2022-10-09T10:03:29.816Z,2
2022-10-09T10:04:34.143Z,1.9
2022-10-09T10:05:38.755Z,1.9
2022-10-09T10:06:43.080Z,1.9
2022-10-09T10:07:47.507Z,1.8
2022-10-09T10:08:51.756Z,2
2022-10-09T10:10:01.485Z,2
2022-10-09T10:11:07.165Z,1.7
2022-10-09T10:12:12.520Z,1.8
2022-10-09T10:13:16.735Z,1.9
2022-10-09T10:14:24.455Z,1.5
2022-10-09T10:17:18.467Z,1.6
2022-10-09T10:18:25.543Z,1.6
2022-10-09T10:19:29.774Z,1.9
2022-10-09T10:20:37.255Z,1.9
2022-10-09T10:21:44.727Z,1.7
2022-10-09T10:22:50.557Z,2.3
2022-10-09T10:23:58.825Z,2
2022-10-09T10:25:03.047Z,1.8
2022-10-09T10:26:09.591Z,1.6
2022-10-09T10:27:18.836Z,1.7
2022-10-09T10:28:23.430Z,1.8
2022-10-09T10:29:33.019Z,1.8
2022-10-09T10:30:46.080Z,1.6
2022-10-09T10:31:50.549Z,1.5
2022-10-09T10:32:57.869Z,1.5
2022-10-09T10:34:02.499Z,1.1
2022-10-09T10:35:08.544Z,1.3
2022-10-09T10:36:15.615Z,1.3
2022-10-09T10:37:19.783Z,1.4
2022-10-09T10:38:34.404Z,1.5
2022-10-09T10:41:33.859Z,1.7
2022-10-09T10:42:41.727Z,1.2
2022-10-09T10:43:51.280Z,1.7
2022-10-09T10:44:55.931Z,1.8
2022-10-09T10:46:05.111Z,1.7
2022-10-09T10:47:19.603Z,1.7
2022-10-09T10:48:23.860Z,1.7
2022-10-09T10:49:31.731Z,1.9
2022-10-09T10:50:32.856Z,1.8
2022-10-09T10:51:38.637Z,1.6
2022-10-09T10:52:55.077Z,1.5
2022-10-09T10:54:03.887Z,1.8
2022-10-09T10:55:21.254Z,2
2022-10-09T10:56:33.404Z,1.7
2022-10-09T10:57:41.005Z,1.6
2022-10-09T10:58:55.704Z,1.7
2022-10-09T11:00:05.286Z,1.7
2022-10-09T11:01:10.170Z,1.8
2022-10-09T11:02:31.928Z,1.6
2022-10-09T11:03:38.808Z,1.7
2022-10-09T11:04:48.044Z,1.7
2022-10-09T11:05:52.497Z,1.5
2022-10-09T11:07:07.360Z,1.7
2022-10-09T11:08:12.463Z,1.6
2022-10-09T11:09:24.627Z,1.6
2022-10-09T11:10:36.995Z,1.5
2022-10-09T11:11:46.675Z,1.7
2022-10-09T11:16:33.583Z,1.7
2022-10-09T11:17:43.111Z,1.8
2022-10-09T11:18:52.839Z,1.8
2022-10-09T11:20:05.331Z,1.5
2022-10-09T11:21:19.928Z,1.7
2022-10-09T11:22:28.691Z,1.7
2022-10-09T11:23:43.103Z,1.8
2022-10-09T11:24:57.923Z,1.8
2022-10-09T11:26:05.311Z,1.7
2022-10-09T11:27:20.212Z,1.8
2022-10-09T11:28:27.731Z,1.4
2022-10-09T11:29:37.020Z,2.4
2022-10-09T11:30:44.344Z,1.4
2022-10-09T11:33:14.418Z,1.6
2022-10-09T11:36:12.936Z,1.4
2022-10-09T11:41:06.539Z,1.4
2022-10-09T11:46:06.771Z,1.4
2022-10-09T11:51:04.926Z,1.5
2022-10-09T11:56:15.790Z,1.3
2022-10-09T11:57:25.228Z,1.5
2022-10-09T11:58:29.779Z,1.4
2022-10-09T11:59:34.239Z,1.4
2022-10-09T12:00:38.548Z,1.6
2022-10-09T12:01:43.145Z,1.5
2022-10-09T12:02:47.410Z,1.7
2022-10-09T12:03:51.829Z,1.8
2022-10-09T12:04:59.627Z,1.9
2022-10-09T12:06:11.923Z,1.6
2022-10-09T12:07:17.766Z,1.9
2022-10-09T12:08:32.182Z,1.5
2022-10-09T12:09:36.528Z,1.6
2022-10-09T12:10:43.485Z,2
2022-10-09T12:11:53.564Z,1.7
2022-10-09T12:13:08.827Z,1.7
2022-10-09T12:14:23.703Z,1.5
2022-10-09T12:15:28.139Z,1.8
2022-10-09T12:16:38.227Z,1.7
2022-10-09T12:17:42.715Z,1.5
2022-10-09T12:18:51.037Z,1.3
2022-10-09T12:20:01.017Z,1.9
2022-10-09T12:21:05.324Z,1.8
2022-10-09T12:22:10.557Z,1.4
2022-10-09T12:23:26.064Z,1.4
2022-10-09T12:24:19.225Z,1.2
2022-10-09T12:25:27.628Z,1.4
2022-10-09T12:26:35.091Z,1.5
2022-10-09T12:27:39.564Z,1.6
2022-10-09T12:28:44.091Z,1.3
2022-10-09T12:29:48.640Z,1.6
2022-10-09T12:30:53.091Z,1.6
2022-10-09T12:31:57.447Z,1.4
2022-10-09T12:33:08.119Z,1.6
2022-10-09T12:34:15.375Z,1.4
2022-10-09T12:35:21.419Z,1.2
2022-10-09T12:36:26.149Z,1.2
2022-10-09T12:37:30.507Z,1.2
2022-10-09T12:38:34.834Z,1.6
2022-10-09T12:39:43.549Z,1.1
2022-10-09T12:40:48.491Z,1.5
2022-10-09T12:41:52.983Z,1.1
2022-10-09T12:42:57.643Z,1.1
2022-10-09T12:44:04.655Z,1.3
2022-10-09T12:45:08.976Z,1.1
2022-10-09T12:46:18.980Z,1.3
2022-10-09T12:47:29.535Z,1.1
2022-10-09T12:48:34.096Z,1.3
2022-10-09T12:49:38.615Z,1.3
2022-10-09T12:50:42.992Z,1.2
2022-10-09T12:51:49.393Z,1.2
2022-10-09T12:52:52.686Z,1.1
2022-10-09T12:53:59.822Z,1.2
2022-10-09T12:55:04.549Z,1.1
2022-10-09T12:56:09.941Z,1.2
2022-10-09T12:57:16.879Z,1.2
2022-10-09T12:58:21.347Z,1.4
2022-10-09T13:00:29.533Z,1.2
2022-10-09T13:01:34.941Z,1.2
2022-10-09T13:02:39.296Z,1.3
2022-10-09T13:03:43.719Z,1.2
2022-10-09T13:04:53.058Z,1.4
2022-10-09T13:07:48.501Z,1.2
2022-10-09T13:08:51.852Z,1.5
2022-10-09T13:10:01.391Z,1.5
2022-10-09T13:11:09.219Z,1.5
2022-10-09T13:12:22.043Z,1.5
2022-10-09T13:17:05.469Z,1.3
2022-10-09T13:18:19.920Z,1.8
2022-10-09T13:22:43.342Z,1.5
2022-10-09T13:23:55.330Z,2.1
2022-10-09T13:25:07.499Z,1.9
2022-10-09T13:28:01.248Z,1.5
2022-10-09T13:29:07.135Z,1.8
2022-10-09T13:30:11.657Z,1.6
2022-10-09T13:31:16.226Z,1.7
2022-10-09T13:32:21.852Z,1.9
2022-10-09T13:33:26.178Z,2.4
2022-10-09T13:34:30.384Z,2.1
2022-10-09T13:35:34.746Z,2.2
2022-10-09T13:36:43.274Z,2.5
2022-10-09T13:37:47.807Z,2.2
2022-10-09T13:38:51.733Z,1.8
2022-10-09T13:39:55.995Z,1.7
2022-10-09T13:41:00.106Z,1.8
2022-10-09T13:42:04.626Z,1.8
2022-10-09T13:43:08.898Z,1.5
2022-10-09T13:44:14.074Z,1.6
2022-10-09T13:45:18.485Z,1.3
2022-10-09T13:46:22.890Z,1.5
2022-10-09T13:47:27.578Z,1.3
2022-10-09T13:48:32.714Z,1.3
2022-10-09T13:49:38.073Z,1.3
2022-10-09T13:50:43.204Z,1.5
2022-10-09T13:51:47.773Z,1.5
2022-10-09T13:52:51.974Z,1.7
2022-10-09T13:53:56.313Z,1.6
2022-10-09T13:55:00.760Z,2.3
2022-10-09T13:56:05.977Z,1.8
2022-10-09T13:57:10.070Z,1.7
2022-10-09T13:58:14.274Z,1.8
2022-10-09T13:59:18.701Z,1.6
2022-10-09T14:00:22.910Z,1.8
2022-10-09T14:01:27.626Z,1.8
2022-10-09T14:02:32.421Z,1.7
2022-10-09T14:03:39.955Z,1.6
2022-10-09T14:04:44.734Z,1.4
2022-10-09T14:05:48.886Z,1.3
2022-10-09T14:07:01.018Z,1.6
2022-10-09T14:08:05.444Z,1.5
2022-10-09T14:09:12.814Z,1.4
2022-10-09T14:10:21.578Z,1.5
2022-10-09T14:11:21.862Z,1.4
2022-10-09T14:12:26.150Z,1.4
2022-10-09T14:13:30.570Z,1.7
2022-10-09T14:14:36.778Z,1.4
2022-10-09T14:15:41.388Z,1.3
2022-10-09T14:16:50.281Z,1.3
2022-10-09T14:17:54.526Z,1.3
2022-10-09T14:18:58.816Z,1.7
2022-10-09T14:20:03.003Z,1.5
2022-10-09T14:21:11.280Z,1.7
2022-10-09T14:22:12.431Z,1.5
2022-10-09T14:23:16.742Z,1.5
2022-10-09T14:24:21.326Z,1.5
2022-10-09T14:25:26.081Z,1.5
2022-10-09T14:26:30.531Z,1.6
2022-10-09T14:28:39.002Z,1.4
2022-10-09T14:29:43.625Z,1.6
2022-10-09T14:30:47.875Z,1.6
2022-10-09T14:31:52.766Z,1.3
2022-10-09T14:32:57.107Z,1.5
2022-10-09T14:34:01.353Z,1.5
2022-10-09T14:35:05.625Z,1.5
2022-10-09T14:36:10.325Z,1.5
2022-10-09T14:37:24.006Z,1.6
2022-10-09T14:38:19.709Z,2
2022-10-09T14:39:25.013Z,1.8
2022-10-09T14:40:29.197Z,1.6
2022-10-09T14:41:37.548Z,1.6
2022-10-09T14:42:43.505Z,1.9
2022-10-09T14:43:48.513Z,3.5
2022-10-09T14:44:55.354Z,2.1
2022-10-09T14:45:59.684Z,2.5
2022-10-09T14:47:09.123Z,3.7
2022-10-09T14:48:13.401Z,1.4
2022-10-09T14:49:17.993Z,1.4
2022-10-09T14:50:22.233Z,1.4
2022-10-09T14:51:26.486Z,1.8
2022-10-09T14:52:31.118Z,1.6
2022-10-09T14:53:35.258Z,1.9
2022-10-09T14:54:39.416Z,1.7
2022-10-09T14:56:48.422Z,1.8
2022-10-09T14:57:54.673Z,1.7
2022-10-09T14:58:58.937Z,1.8
2022-10-09T15:00:03.269Z,1.5
2022-10-09T15:01:07.945Z,1.7
2022-10-09T15:02:15.405Z,1.9
2022-10-09T15:03:20.046Z,2.7
2022-10-09T15:04:24.369Z,2.9
2022-10-09T15:05:28.714Z,2
2022-10-09T15:07:35.905Z,2
2022-10-09T15:08:40.229Z,2.1
2022-10-09T15:09:44.693Z,1.9
2022-10-09T15:10:49.030Z,1.6
2022-10-09T15:11:53.638Z,2.1
2022-10-09T15:12:57.957Z,1.8
2022-10-09T15:14:02.390Z,1.9
2022-10-09T15:15:06.805Z,1.7
2022-10-09T15:16:11.178Z,1.8
2022-10-09T15:17:15.812Z,2.3
2022-10-09T15:18:20.134Z,1.7
2022-10-09T15:19:24.305Z,1.4
2022-10-09T15:20:29.401Z,2
2022-10-09T15:21:33.788Z,1.7
2022-10-09T15:22:38.438Z,1.6
2022-10-09T15:23:42.738Z,2
2022-10-09T15:24:47.257Z,1.7
2022-10-09T15:25:51.450Z,1.7
2022-10-09T15:26:55.659Z,1.7
2022-10-09T15:28:00.826Z,1.8
2022-10-09T15:29:04.629Z,1.9
2022-10-09T15:30:09.061Z,2
2022-10-09T15:31:14.254Z,1.7
2022-10-09T15:32:26.109Z,1.9
2022-10-09T15:35:21.051Z,2.1
2022-10-09T15:40:05.413Z,1.9
2022-10-09T15:41:10.001Z,2
2022-10-09T15:42:20.038Z,2.3
2022-10-09T15:45:14.393Z,2.1
2022-10-09T15:46:18.981Z,2.3
2022-10-09T15:47:39.540Z,2
2022-10-09T15:48:35.713Z,2.1
2022-10-09T15:49:39.917Z,2.4
2022-10-09T15:52:18.493Z,2.1
2022-10-09T15:53:23.519Z,2.6
2022-10-09T15:54:27.841Z,2.5
2022-10-09T15:55:32.506Z,2.5
2022-10-09T15:56:39.817Z,2.4
2022-10-09T15:57:42.045Z,2.7
2022-10-09T15:58:47.522Z,2.6
2022-10-09T15:59:52.053Z,2.8
2022-10-09T16:00:56.307Z,2.7
2022-10-09T16:02:05.899Z,2.8
2022-10-09T16:03:13.344Z,2.7
2022-10-09T16:04:17.584Z,2.8
2022-10-09T16:05:22.352Z,2.7
2022-10-09T16:06:26.956Z,2.9
2022-10-09T16:07:31.177Z,2.7
2022-10-09T16:09:39.074Z,2.5
2022-10-09T16:10:47.821Z,2.8
2022-10-09T16:11:47.865Z,2.9
2022-10-09T16:12:52.507Z,2.7
2022-10-09T16:13:56.460Z,2.6
2022-10-09T16:15:00.793Z,2.8
2022-10-09T16:16:05.330Z,2.7
2022-10-09T16:18:13.521Z,3.4
2022-10-09T16:19:20.801Z,3.2
2022-10-09T16:20:25.108Z,3.4
2022-10-09T16:21:29.337Z,3.4
2022-10-09T16:22:33.881Z,3.5
2022-10-09T16:23:38.321Z,3.9
2022-10-09T16:24:42.709Z,4.3
2022-10-09T16:25:47.525Z,5.4
2022-10-09T16:26:57.585Z,5.3
2022-10-09T16:28:02.433Z,5.1
2022-10-09T16:29:07.648Z,7.6
2022-10-09T16:30:12.312Z,7.7
2022-10-09T16:31:16.640Z,8.9
2022-10-09T16:32:23.954Z,9.3
2022-10-09T16:33:29.573Z,8.6
2022-10-09T16:34:34.140Z,8.7
2022-10-09T16:35:38.377Z,8.3
2022-10-09T16:36:43.330Z,8.2
2022-10-09T16:37:47.684Z,9.5
2022-10-09T16:38:52.176Z,11.6
2022-10-09T16:39:56.450Z,9.4
2022-10-09T16:41:02.762Z,8.9
2022-10-09T16:42:12.188Z,8.3
2022-10-09T16:43:16.782Z,7
2022-10-09T16:44:21.268Z,7
2022-10-09T16:45:25.653Z,6.8
2022-10-09T16:46:30.016Z,6.3
2022-10-09T16:47:34.427Z,6.3
2022-10-09T16:48:39.516Z,7
2022-10-09T16:49:43.892Z,7.2
2022-10-09T16:50:48.448Z,6.7
2022-10-09T16:51:53.276Z,6.6
2022-10-09T16:52:57.833Z,7
2022-10-09T16:55:05.945Z,6.5
2022-10-09T16:56:10.800Z,7.1
2022-10-09T16:57:15.341Z,7.2
2022-10-09T16:58:23.492Z,7.7
2022-10-09T16:59:32.221Z,7.2
2022-10-09T17:00:36.718Z,7.4
2022-10-09T17:01:43.233Z,7.6
2022-10-09T17:02:48.136Z,7.7
2022-10-09T17:03:52.281Z,7.3
2022-10-09T17:05:02.112Z,7
2022-10-09T17:06:07.025Z,7.4
2022-10-09T17:07:11.685Z,7.5
2022-10-09T17:08:16.361Z,7.2
2022-10-09T17:09:22.533Z,7.6
2022-10-09T17:10:26.920Z,7.8
2022-10-09T17:11:31.389Z,7.6
2022-10-09T17:12:36.193Z,8.5
2022-10-09T17:13:40.610Z,7.7
2022-10-09T17:14:46.461Z,8.3
2022-10-09T17:15:59.164Z,9.2
2022-10-09T17:17:58.489Z,9.8
2022-10-09T17:19:03.065Z,10
2022-10-09T17:20:07.564Z,9.7
2022-10-09T17:21:12.100Z,10.7
2022-10-09T17:22:16.837Z,10.5
2022-10-09T17:23:21.160Z,10.2
2022-10-09T17:24:25.400Z,10.2
2022-10-09T17:25:29.648Z,10.4
2022-10-09T17:26:33.918Z,10.8
2022-10-09T17:27:38.505Z,9.8
2022-10-09T17:28:43.036Z,10.2
2022-10-09T17:29:47.428Z,10.4
2022-10-09T17:30:51.956Z,9.7
2022-10-09T17:31:57.477Z,10
2022-10-09T17:33:02.117Z,9.2
2022-10-09T17:34:06.413Z,10.1
2022-10-09T17:35:10.652Z,9.5
2022-10-09T17:36:14.964Z,9
2022-10-09T17:37:19.516Z,9.8
2022-10-09T17:38:24.313Z,9
2022-10-09T17:39:28.725Z,9.4
2022-10-09T17:40:33.269Z,9.6
2022-10-09T17:41:41.784Z,9.1
2022-10-09T17:42:46.401Z,9.5
2022-10-09T17:43:50.997Z,8.1
2022-10-09T17:44:58.929Z,9.3
2022-10-09T17:46:03.303Z,9.2
2022-10-09T17:47:07.569Z,9.6
2022-10-09T17:48:11.948Z,9
2022-10-09T17:49:16.140Z,9.5
2022-10-09T17:50:20.672Z,9.7
2022-10-09T17:51:25.250Z,9.7
2022-10-09T17:53:36.311Z,9.1
2022-10-09T17:54:40.552Z,9.7
2022-10-09T17:55:44.949Z,9.7
2022-10-09T17:56:49.513Z,10.6
2022-10-09T17:57:53.993Z,9.9
2022-10-09T17:58:58.586Z,10
2022-10-09T18:00:04.176Z,10.5
2022-10-09T18:01:08.803Z,10.2
2022-10-09T18:02:13.136Z,10
2022-10-09T18:03:17.451Z,10.4
2022-10-09T18:08:02.675Z,10.6
2022-10-09T18:09:06.955Z,10.2
2022-10-09T18:13:48.701Z,10.6
2022-10-09T18:18:27.603Z,9.8
2022-10-09T18:21:23.460Z,11.1
2022-10-09T18:22:28.420Z,11.2
2022-10-09T18:23:33.765Z,11.4
2022-10-09T18:24:38.855Z,13.5
2022-10-09T18:25:43.120Z,13.6
2022-10-09T18:28:37.312Z,17.2
2022-10-09T18:29:41.675Z,19
2022-10-09T18:30:46.681Z,20.7
2022-10-09T18:31:50.944Z,20.2
2022-10-09T18:32:55.445Z,21.3
2022-10-09T18:33:59.808Z,20.1
2022-10-09T18:35:04.792Z,20.4
2022-10-09T18:36:09.731Z,20
2022-10-09T18:37:14.450Z,20.5
2022-10-09T18:38:19.044Z,19.3
2022-10-09T18:39:23.863Z,18.5
2022-10-09T18:40:28.616Z,17.2
2022-10-09T18:41:33.373Z,18.5
2022-10-09T18:42:38.277Z,18.5
2022-10-09T18:43:42.664Z,16.9
2022-10-09T18:44:47.196Z,17.2
2022-10-09T18:45:54.082Z,16.7
2022-10-09T18:46:58.764Z,15.9
2022-10-09T18:48:03.464Z,15.4
2022-10-09T18:50:11.674Z,14.5
2022-10-09T18:51:16.349Z,13.1
2022-10-09T18:52:20.735Z,13.4
2022-10-09T18:53:25.447Z,12.5
2022-10-09T18:54:30.072Z,12.6
2022-10-09T18:55:34.807Z,12.1
2022-10-09T18:56:39.395Z,11.3
2022-10-09T18:57:46.171Z,11
2022-10-09T18:58:50.380Z,10.6
2022-10-09T18:59:54.947Z,10.6
2022-10-09T19:04:40.928Z,10.2
2022-10-09T19:09:25.769Z,10.3
2022-10-09T19:10:43.556Z,9.7
2022-10-09T19:13:43.581Z,9.8
2022-10-09T19:17:40.140Z,8.7
2022-10-09T19:22:35.908Z,8.3
2022-10-09T19:23:40.415Z,8.4
2022-10-09T19:29:12.397Z,11
2022-10-09T19:37:27.372Z,23.9
2022-10-09T19:38:29.767Z,24.6
2022-10-09T19:47:24.227Z,27.7
2022-10-09T19:48:28.644Z,29.8
2022-10-09T20:04:16.616Z,29.7
2022-10-09T20:05:26.163Z,28.2
2022-10-09T20:06:30.331Z,29.3
2022-10-09T20:09:29.644Z,28
2022-10-09T20:10:33.803Z,28.9
2022-10-09T20:15:48.588Z,26.3
2022-10-09T20:21:03.207Z,15.3
2022-10-09T20:23:57.511Z,13.7
2022-10-09T20:29:11.985Z,14.4
2022-10-09T20:33:41.967Z,14.4
2022-10-09T20:39:14.491Z,14
2022-10-09T20:42:42.835Z,15.8
2022-10-09T20:47:27.503Z,18.1
2022-10-09T20:52:37.135Z,17.2
2022-10-09T20:53:41.407Z,17.5
2022-10-09T21:01:52.063Z,14.6
2022-10-09T21:02:56.372Z,14.5
2022-10-09T21:11:37.260Z,13.8
2022-10-09T21:12:41.843Z,13.7
2022-10-09T21:21:02.332Z,13.3
2022-10-09T21:22:09.595Z,12.7
2022-10-09T21:34:51.164Z,12.6
2022-10-09T21:35:55.415Z,13.4
2022-10-09T21:39:20.819Z,12.2
2022-10-09T21:44:35.316Z,12.5
2022-10-09T21:45:39.523Z,13.3
2022-10-09T21:54:27.309Z,12.9
2022-10-09T21:55:31.503Z,13.6
2022-10-09T22:03:41.159Z,11.7
2022-10-09T22:04:45.316Z,12.1
2022-10-09T22:09:29.963Z,12.3
2022-10-09T22:13:23.672Z,12.3
2022-10-09T22:14:27.739Z,11.1
2022-10-09T22:19:01.558Z,12.4
2022-10-09T22:28:01.063Z,11.4
2022-10-09T22:29:07.869Z,11.5
2022-10-09T22:32:47.528Z,11.2
2022-10-09T22:33:55.370Z,10.6
2022-10-09T22:34:59.832Z,11.2
2022-10-09T22:36:08.355Z,11.2
2022-10-09T22:37:12.945Z,10.9
2022-10-09T22:38:17.594Z,10.3
2022-10-09T22:39:21.910Z,11.2
2022-10-09T22:40:26.282Z,10.7
2022-10-09T22:41:30.606Z,10.8
2022-10-09T22:42:35.026Z,10.4
2022-10-09T22:43:39.229Z,10.7
2022-10-09T22:47:35.954Z,9.8
2022-10-09T22:48:40.803Z,10.2
2022-10-09T22:49:47.587Z,10.3
2022-10-09T22:50:51.970Z,10.1
2022-10-09T22:53:46.608Z,10.2
2022-10-09T22:54:50.962Z,10
2022-10-09T22:55:55.374Z,10.2
2022-10-09T22:56:59.954Z,9.7
2022-10-09T22:58:05.846Z,10
2022-10-09T22:59:10.158Z,10.2
2022-10-09T23:00:14.578Z,9.6
2022-10-09T23:01:19.200Z,10
2022-10-09T23:02:25.678Z,9.8
2022-10-09T23:03:30.098Z,9.7
2022-10-09T23:04:34.527Z,9.6
2022-10-09T23:05:38.778Z,9.6
2022-10-09T23:06:42.962Z,10.1
2022-10-09T23:07:49.047Z,9.9
2022-10-09T23:08:57.326Z,9.4
2022-10-09T23:10:01.513Z,9.5
2022-10-09T23:11:06.742Z,10.1
2022-10-09T23:15:52.267Z,9.7
2022-10-09T23:16:56.569Z,9
2022-10-09T23:18:00.766Z,9.5
2022-10-09T23:19:06.901Z,8.7
2022-10-09T23:20:09.295Z,9.2
2022-10-09T23:21:13.707Z,9.6
2022-10-09T23:25:09.898Z,9.1
2022-10-09T23:26:14.226Z,9.5
2022-10-09T23:27:18.527Z,9.3
2022-10-09T23:32:03.153Z,9.4
2022-10-09T23:33:07.613Z,9.2
2022-10-09T23:36:02.177Z,10
2022-10-09T23:37:06.701Z,10.2
2022-10-09T23:38:11.184Z,9
2022-10-09T23:39:15.673Z,10.2
2022-10-09T23:40:19.950Z,9.9
2022-10-09T23:43:14.605Z,9.9
2022-10-09T23:44:21.941Z,9
2022-10-09T23:45:23.137Z,9.4
2022-10-09T23:46:28.546Z,9.4
2022-10-09T23:47:35.710Z,9.3
2022-10-09T23:48:40.001Z,9.5
2022-10-09T23:51:31.404Z,10.2
2022-10-09T23:52:35.737Z,9.4
2022-10-09T23:53:40.030Z,9.7
2022-10-09T23:54:44.277Z,10.1
2022-10-09T23:55:48.637Z,9.2
2022-10-09T23:56:52.841Z,9.7
2022-10-09T23:59:47.412Z,9
